Time;durP1;ratioP1;P1;durP2;ratioP2;P2;SDS_P1;SDS_P2;PMS_P1;PMS_P2;Temp;Humidity;BMP_temperature;BMP_pressure;BME280_temperature;BME280_humidity;BME280_pressure;Samples;Min_cycle;Max_cycle;Signal;HPM_P1;HPM_P2
2022/06/20 00:00:50;;;;;;;17.35;6.00;;;20.60;99.90;;;;;;10348205;28;20556;-78
2022/06/20 00:05:53;;;;;;;9.45;5.50;;;21.10;99.90;;;;;;10330928;28;20232;-78
2022/06/20 00:10:55;;;;;;;7.57;4.88;;;21.00;99.90;;;;;;10351402;28;20614;-78
2022/06/20 00:16:00;;;;;;;6.07;4.63;;;21.00;99.90;;;;;;10332680;28;20259;-78
2022/06/20 00:21:03;;;;;;;4.32;3.88;;;21.80;99.90;;;;;;10365726;28;20256;-78
2022/06/20 00:26:06;;;;;;;8.10;5.28;;;21.40;99.90;;;;;;10348151;28;20255;-78
2022/06/20 00:31:10;;;;;;;6.75;4.45;;;21.60;99.90;;;;;;10348422;28;20239;-78
2022/06/20 00:36:13;;;;;;;5.05;4.63;;;21.20;99.90;;;;;;10365323;28;20853;-77
2022/06/20 00:41:20;;;;;;;6.72;4.10;;;21.90;99.90;;;;;;10348218;28;20307;-78
2022/06/20 00:46:37;;;;;;;5.13;4.63;;;20.70;99.90;;;;;;10349056;28;20643;-78
2022/06/20 00:51:48;;;;;;;4.47;4.00;;;21.00;99.90;;;;;;10364616;28;20299;-78
2022/06/20 00:56:56;;;;;;;8.60;4.68;;;21.10;99.90;;;;;;10326138;28;20240;-78
2022/06/20 01:02:00;;;;;;;13.27;4.47;;;21.40;99.90;;;;;;10325167;28;20344;-77
2022/06/20 01:07:09;;;;;;;7.70;4.72;;;20.80;99.90;;;;;;10351157;28;20696;-79
2022/06/20 01:12:15;;;;;;;6.03;4.15;;;21.10;99.90;;;;;;10365140;28;20239;-77
2022/06/20 01:17:38;;;;;;;4.28;3.72;;;21.70;99.90;;;;;;10329261;28;20619;-78
2022/06/20 01:23:02;;;;;;;5.25;4.75;;;22.00;99.90;;;;;;10348364;28;20645;-78
2022/06/20 01:28:12;;;;;;;5.10;3.70;;;22.10;99.90;;;;;;10365966;28;20212;-77
2022/06/20 01:33:19;;;;;;;9.20;4.70;;;22.10;99.90;;;;;;10366477;28;20433;-78
2022/06/20 01:38:24;;;;;;;5.20;3.97;;;22.20;99.90;;;;;;10355723;28;20266;-78
2022/06/20 01:43:30;;;;;;;5.32;3.83;;;22.30;99.90;;;;;;10349150;28;20311;-78
2022/06/20 01:48:33;;;;;;;4.50;3.67;;;21.60;99.90;;;;;;10345780;28;20236;-77
2022/06/20 01:53:35;;;;;;;5.22;4.25;;;21.70;99.90;;;;;;10372227;28;20281;-78
2022/06/20 01:58:44;;;;;;;6.03;3.72;;;21.80;99.90;;;;;;10344736;28;20676;-77
2022/06/20 02:03:47;;;;;;;4.97;3.92;;;22.10;99.90;;;;;;10343976;28;20252;-77
2022/06/20 02:08:54;;;;;;;6.63;3.38;;;22.00;99.90;;;;;;10371882;28;20224;-78
2022/06/20 02:14:24;;;;;;;9.32;4.03;;;22.00;99.90;;;;;;10354483;28;20770;-77
2022/06/20 02:19:32;;;;;;;5.15;3.60;;;21.70;99.90;;;;;;10367576;28;20709;-78
2022/06/20 02:24:38;;;;;;;4.18;3.75;;;22.10;99.90;;;;;;10352969;28;20256;-77
2022/06/20 02:29:41;;;;;;;3.45;3.15;;;22.20;99.90;;;;;;10369048;28;20250;-77
2022/06/20 02:34:44;;;;;;;4.47;3.70;;;22.20;99.90;;;;;;10353424;28;20281;-77
2022/06/20 02:39:50;;;;;;;3.97;3.55;;;22.20;99.90;;;;;;10353438;28;20598;-77
2022/06/20 02:44:53;;;;;;;4.00;3.60;;;22.20;99.90;;;;;;10366112;28;20263;-78
2022/06/20 02:49:59;;;;;;;4.40;4.00;;;22.20;99.90;;;;;;10370831;28;20390;-78
2022/06/20 02:55:02;;;;;;;4.75;3.63;;;22.30;99.90;;;;;;10351899;28;20220;-77
2022/06/20 03:00:11;;;;;;;4.93;3.42;;;22.30;99.90;;;;;;10364372;28;20240;-77
2022/06/20 03:05:15;;;;;;;3.30;3.00;;;22.30;99.90;;;;;;10360191;28;20700;-78
2022/06/20 03:10:24;;;;;;;4.80;4.30;;;22.10;99.90;;;;;;10349815;28;20232;-78
2022/06/20 03:15:28;;;;;;;7.30;4.22;;;22.00;99.90;;;;;;10367855;28;20224;-78
2022/06/20 03:20:31;;;;;;;3.70;3.30;;;22.00;99.90;;;;;;10350989;28;20208;-77
2022/06/20 03:25:37;;;;;;;4.38;3.50;;;22.10;99.90;;;;;;10367843;28;20691;-77
2022/06/20 03:30:41;;;;;;;5.85;3.20;;;22.10;99.90;;;;;;10366615;28;20235;-78
2022/06/20 03:35:50;;;;;;;3.60;3.30;;;22.10;99.90;;;;;;10350552;28;20239;-77
2022/06/20 03:40:53;;;;;;;7.97;3.85;;;22.10;99.90;;;;;;10367599;28;20319;-77
2022/06/20 03:46:00;;;;;;;3.70;3.15;;;22.10;99.90;;;;;;10350244;28;20260;-78
2022/06/20 03:51:16;;;;;;;4.97;3.15;;;22.20;99.90;;;;;;10366707;28;20631;-77
2022/06/20 03:56:30;;;;;;;4.53;3.50;;;22.20;99.90;;;;;;10365838;28;20746;-77
2022/06/20 04:02:05;;;;;;;3.95;3.55;;;22.20;99.90;;;;;;10349423;28;20664;-77
2022/06/20 04:07:13;;;;;;;3.53;3.22;;;22.20;99.90;;;;;;10349740;28;20224;-77
2022/06/20 04:12:26;;;;;;;4.50;3.90;;;22.20;99.90;;;;;;10364663;28;20258;-77
2022/06/20 04:23:28;;;;;;;4.03;3.20;;;22.20;99.90;;;;;;10366029;28;20312;-77
2022/06/20 04:28:52;;;;;;;3.45;3.10;;;22.20;99.90;;;;;;10358011;28;20235;-77
2022/06/20 04:34:10;;;;;;;4.80;2.88;;;22.30;99.90;;;;;;10345085;28;20243;-77
2022/06/20 04:39:20;;;;;;;4.00;3.47;;;22.20;99.90;;;;;;10345836;28;20702;-78
2022/06/20 04:44:31;;;;;;;3.58;3.00;;;22.20;99.90;;;;;;10346469;28;20264;-77
2022/06/20 04:49:34;;;;;;;4.30;2.90;;;22.10;99.90;;;;;;10345520;28;20236;-77
2022/06/20 04:54:38;;;;;;;3.10;2.78;;;22.20;99.90;;;;;;10362651;28;20302;-77
2022/06/20 04:59:42;;;;;;;3.20;2.90;;;22.10;99.90;;;;;;10355600;28;20235;-78
2022/06/20 05:04:47;;;;;;;3.38;2.75;;;22.20;99.90;;;;;;10365558;28;20318;-78
2022/06/20 05:10:04;;;;;;;3.85;2.67;;;22.10;99.90;;;;;;10355010;28;20613;-77
2022/06/20 05:15:29;;;;;;;5.55;3.35;;;22.10;99.90;;;;;;10373770;28;20232;-77
2022/06/20 05:20:35;;;;;;;7.28;4.43;;;22.10;99.90;;;;;;10362863;28;20224;-80
2022/06/20 05:25:39;;;;;;;5.63;3.28;;;21.00;99.90;;;;;;10365287;28;20242;-78
2022/06/20 05:30:43;;;;;;;9.82;2.95;;;21.30;99.90;;;;;;10386518;28;20280;-78
2022/06/20 05:35:54;;;;;;;5.82;2.78;;;21.60;99.90;;;;;;10388900;28;20224;-79
2022/06/20 05:40:58;;;;;;;5.45;2.15;;;21.90;99.90;;;;;;10392128;28;20266;-79
2022/06/20 05:46:12;;;;;;;5.18;2.28;;;22.00;99.90;;;;;;10377133;28;20313;-79
2022/06/20 05:51:17;;;;;;;5.97;2.40;;;22.00;99.90;;;;;;10376806;28;20335;-79
2022/06/20 05:56:30;;;;;;;16.75;2.83;;;22.10;99.90;;;;;;10354602;28;20212;-79
2022/06/20 06:01:35;;;;;;;3.70;1.95;;;22.10;99.90;;;;;;10368527;28;20240;-78
2022/06/20 06:06:49;;;;;;;1.77;1.55;;;22.30;99.90;;;;;;10370644;28;20255;-79
2022/06/20 06:12:03;;;;;;;3.22;2.20;;;22.20;99.90;;;;;;10356992;28;20205;-79
2022/06/20 06:17:12;;;;;;;3.22;2.28;;;22.30;99.90;;;;;;10330886;28;20228;-79
2022/06/20 06:22:39;;;;;;;8.20;2.47;;;22.30;99.90;;;;;;10352691;28;20271;-79
2022/06/20 06:27:43;;;;;;;5.07;2.03;;;22.40;99.90;;;;;;10370065;28;20224;-79
2022/06/20 06:33:01;;;;;;;4.82;2.67;;;22.40;99.90;;;;;;10370949;28;20236;-81
2022/06/20 06:38:26;;;;;;;2.88;1.88;;;22.30;99.90;;;;;;10370283;28;20270;-79
2022/06/20 06:43:38;;;;;;;5.40;2.28;;;22.40;99.90;;;;;;10369912;28;20665;-78
2022/06/20 06:48:57;;;;;;;4.32;2.15;;;22.40;99.90;;;;;;10358132;28;20702;-78
2022/06/20 06:54:27;;;;;;;6.38;2.40;;;22.40;99.90;;;;;;10370286;28;20262;-79
2022/06/20 06:59:44;;;;;;;2.13;1.90;;;22.40;99.90;;;;;;10352227;28;20200;-78
2022/06/20 07:05:01;;;;;;;3.75;1.90;;;22.40;99.90;;;;;;10366734;28;20281;-78
2022/06/20 07:10:11;;;;;;;2.65;2.10;;;22.40;99.90;;;;;;10368689;28;20257;-79
2022/06/20 07:15:17;;;;;;;3.28;2.15;;;22.50;99.90;;;;;;10351311;28;20277;-78
2022/06/20 07:20:24;;;;;;;5.32;2.10;;;22.50;99.90;;;;;;10349748;28;20645;-79
2022/06/20 07:25:35;;;;;;;2.58;1.90;;;22.40;99.90;;;;;;10350145;28;20286;-79
2022/06/20 07:30:43;;;;;;;2.95;1.70;;;22.20;99.90;;;;;;10327868;28;20713;-79
2022/06/20 07:35:51;;;;;;;2.40;1.70;;;21.90;99.90;;;;;;10325575;28;20285;-78
2022/06/20 07:41:36;;;;;;;2.88;2.28;;;22.10;99.90;;;;;;10350174;28;20236;-78
2022/06/20 07:46:52;;;;;;;3.35;2.13;;;21.40;99.90;;;;;;10357101;28;20317;-79
2022/06/20 07:51:58;;;;;;;2.85;2.03;;;21.20;99.90;;;;;;10340934;28;20235;-79
2022/06/20 07:57:08;;;;;;;2.85;2.10;;;21.60;99.90;;;;;;10366985;28;20294;-80
2022/06/20 08:02:19;;;;;;;3.97;2.67;;;21.90;99.90;;;;;;10330680;28;20237;-78
2022/06/20 08:07:24;;;;;;;5.07;3.50;;;21.70;99.90;;;;;;10365657;28;20309;-79
2022/06/20 08:12:52;;;;;;;2.90;2.53;;;21.50;99.90;;;;;;10348538;28;20236;-79
2022/06/20 08:17:55;;;;;;;7.28;4.97;;;;;;;;;;10365622;28;20309;-79
2022/06/20 08:23:10;;;;;;;3.35;2.95;;;20.20;99.90;;;;;;10366169;28;20260;-79
2022/06/20 08:28:22;;;;;;;2.97;2.20;;;19.30;99.90;;;;;;10340905;28;20291;-79
2022/06/20 08:34:03;;;;;;;5.05;2.95;;;20.90;99.90;;;;;;10291379;28;20289;-79
2022/06/20 08:39:28;;;;;;;4.25;3.53;;;20.10;99.90;;;;;;10343629;28;20240;-80
2022/06/20 08:45:05;;;;;;;3.47;2.53;;;19.10;99.90;;;;;;10354991;28;20267;-79
2022/06/20 08:50:36;;;;;;;2.33;2.13;;;19.50;99.90;;;;;;10207281;29;20246;-79
2022/06/20 08:56:06;;;;;;;3.55;2.10;;;20.40;99.90;;;;;;10207105;29;20281;-79
2022/06/20 09:01:45;;;;;;;2.20;2.00;;;21.00;99.90;;;;;;10204657;29;20250;-81
2022/06/20 09:06:56;;;;;;;3.17;2.60;;;21.30;99.90;;;;;;10236080;29;20261;-80
2022/06/20 09:12:15;;;;;;;2.15;1.95;;;21.60;99.90;;;;;;10194043;29;20242;-79
2022/06/20 09:17:39;;;;;;;4.07;2.25;;;22.00;99.90;;;;;;10207441;29;20238;-79
2022/06/20 09:23:05;;;;;;;4.35;2.28;;;22.20;99.90;;;;;;10236011;28;20231;-79
2022/06/20 09:28:11;;;;;;;2.95;2.38;;;22.00;99.90;;;;;;10359361;28;20617;-80
2022/06/20 09:33:39;;;;;;;2.22;2.00;;;21.70;99.90;;;;;;10370922;28;20636;-79
2022/06/20 09:39:01;;;;;;;2.72;2.00;;;21.60;99.90;;;;;;10364701;28;20235;-79
2022/06/20 09:44:12;;;;;;;4.78;2.50;;;21.30;99.90;;;;;;10371249;28;20260;-79
2022/06/20 09:49:36;;;;;;;3.15;1.90;;;21.50;99.90;;;;;;10335647;28;20232;-80
2022/06/20 09:55:03;;;;;;;2.58;2.38;;;21.70;99.90;;;;;;10361121;28;20239;-79
2022/06/20 10:00:18;;;;;;;5.60;2.05;;;21.70;99.90;;;;;;10369049;28;20263;-79
2022/06/20 10:05:32;;;;;;;1.90;1.80;;;21.50;99.90;;;;;;10369115;28;20254;-80
2022/06/20 10:10:39;;;;;;;2.25;1.90;;;22.10;99.90;;;;;;10364572;28;20228;-79
2022/06/20 10:16:05;;;;;;;2.58;1.85;;;22.50;99.90;;;;;;10375153;28;20294;-81
2022/06/20 10:21:16;;;;;;;1.90;1.80;;;22.40;99.90;;;;;;10390197;28;20255;-79
2022/06/20 10:26:45;;;;;;;1.95;1.63;;;22.20;99.90;;;;;;10374157;28;20244;-82
2022/06/20 10:32:26;;;;;;;2.25;2.05;;;21.90;99.90;;;;;;10244902;28;20292;-81
2022/06/20 10:37:37;;;;;;;2.33;2.13;;;21.90;99.90;;;;;;10264621;28;20237;-80
2022/06/20 10:42:51;;;;;;;1.73;1.63;;;21.90;99.90;;;;;;10247615;28;20258;-79
2022/06/20 10:48:15;;;;;;;1.80;1.70;;;21.90;99.90;;;;;;10254262;28;20266;-80
2022/06/20 10:53:29;;;;;;;3.08;1.63;;;21.80;99.90;;;;;;10268493;28;20389;-78
2022/06/20 10:58:48;;;;;;;2.78;1.83;;;21.90;99.90;;;;;;10276943;28;20234;-79
2022/06/20 11:04:08;;;;;;;2.15;1.95;;;21.80;99.90;;;;;;10227582;28;20254;-78
2022/06/20 11:09:33;;;;;;;2.10;1.88;;;21.90;99.90;;;;;;10347116;28;20239;-79
2022/06/20 11:14:56;;;;;;;1.80;1.70;;;22.00;99.90;;;;;;10368424;28;20208;-78
2022/06/20 11:20:14;;;;;;;1.83;1.63;;;22.00;99.90;;;;;;10368384;28;20598;-79
2022/06/20 11:25:35;;;;;;;2.97;1.85;;;22.00;99.90;;;;;;10319777;28;20403;-78
2022/06/20 11:31:00;;;;;;;2.00;1.80;;;22.20;99.90;;;;;;10312220;28;20375;-79
2022/06/20 11:36:12;;;;;;;2.85;2.05;;;22.20;99.90;;;;;;10327154;28;20680;-79
2022/06/20 11:41:29;;;;;;;1.75;1.45;;;22.60;99.90;;;;;;10367795;28;20629;-79
2022/06/20 11:47:09;;;;;;;1.90;1.67;;;22.50;99.90;;;;;;10349979;28;20647;-79
2022/06/20 11:52:31;;;;;;;2.28;1.98;;;22.50;99.90;;;;;;10368543;28;20258;-79
2022/06/20 11:57:46;;;;;;;8.05;7.15;;;22.40;99.90;;;;;;10367664;28;20251;-79
2022/06/20 12:03:30;;;;;;;2.80;2.20;;;22.10;99.90;;;;;;10359948;28;20235;-79
2022/06/20 12:08:48;;;;;;;2.42;2.13;;;22.10;99.90;;;;;;10363716;28;20270;-80
2022/06/20 12:14:05;;;;;;;1.95;1.85;;;21.60;99.90;;;;;;10379532;28;20239;-79
2022/06/20 12:24:57;;;;;;;2.33;2.13;;;21.90;99.90;;;;;;10373672;28;20716;-78
2022/06/20 12:30:00;;;;;;;2.83;2.33;;;21.80;99.90;;;;;;10370812;28;20227;-78
2022/06/20 12:35:21;;;;;;;2.45;2.15;;;22.00;99.90;;;;;;10373979;28;20201;-78
2022/06/20 12:40:26;;;;;;;2.20;2.00;;;22.00;99.90;;;;;;10364474;28;20230;-78
2022/06/20 12:46:07;;;;;;;2.35;2.15;;;22.00;99.90;;;;;;10377862;28;20653;-78
2022/06/20 12:51:35;;;;;;;3.63;2.35;;;21.90;99.90;;;;;;10383360;28;20226;-77
2022/06/20 12:57:15;;;;;;;3.25;2.95;;;21.40;99.90;;;;;;10384343;28;20285;-78
2022/06/20 13:02:38;;;;;;;2.78;2.58;;;21.70;99.90;;;;;;10255127;28;20729;-78
2022/06/20 13:08:07;;;;;;;2.85;2.45;;;21.30;99.90;;;;;;10212849;28;20261;-78
2022/06/20 13:13:48;;;;;;;2.75;2.13;;;21.60;99.90;;;;;;10252986;28;20234;-79
2022/06/20 13:19:02;;;;;;;2.40;2.20;;;21.50;99.90;;;;;;10044905;29;20253;-79
2022/06/20 13:24:53;;;;;;;3.03;2.72;;;21.70;99.90;;;;;;10062265;29;20661;-79
2022/06/20 13:30:22;;;;;;;3.22;2.92;;;21.40;99.90;;;;;;9940145;29;20888;-79
2022/06/20 13:35:46;;;;;;;5.40;2.97;;;21.20;99.90;;;;;;9915349;29;20329;-79
2022/06/20 13:41:06;;;;;;;2.42;2.22;;;21.30;99.90;;;;;;10014975;29;20322;-79
2022/06/20 13:46:26;;;;;;;2.65;2.45;;;20.80;99.90;;;;;;10026821;29;20302;-79
2022/06/20 13:51:43;;;;;;;2.38;2.13;;;21.30;99.90;;;;;;10167983;29;20286;-79
2022/06/20 13:57:25;;;;;;;2.53;2.33;;;21.10;99.90;;;;;;10195195;29;20251;-79
2022/06/20 14:02:33;;;;;;;2.17;2.08;;;21.20;99.90;;;;;;10200518;28;20292;-79
2022/06/20 14:07:36;;;;;;;2.53;2.33;;;20.80;99.90;;;;;;10373038;28;20256;-79
2022/06/20 14:12:41;;;;;;;2.38;2.17;;;20.60;99.90;;;;;;10372393;28;20274;-79
2022/06/20 14:17:53;;;;;;;1.92;1.65;;;21.00;99.90;;;;;;10370953;28;20642;-79
2022/06/20 14:22:58;;;;;;;2.13;1.92;;;20.10;99.90;;;;;;10337786;28;20301;-79
2022/06/20 14:28:01;;;;;;;2.42;1.63;;;;;;;;;;10354258;28;20329;-79
2022/06/20 14:33:26;;;;;;;2.28;2.08;;;18.60;99.90;;;;;;10354014;28;20290;-79
2022/06/20 14:38:39;;;;;;;1.85;1.75;;;19.80;99.90;;;;;;10349437;28;20235;-79
2022/06/20 14:43:46;;;;;;;2.17;1.98;;;20.10;99.90;;;;;;10353881;28;20267;-80
2022/06/20 14:48:58;;;;;;;3.35;1.08;;;20.40;99.90;;;;;;10361030;28;20314;-83
2022/06/20 14:54:12;;;;;;;1.20;1.10;;;19.30;99.90;;;;;;10331919;28;20262;-80
2022/06/20 14:59:42;;;;;;;1.10;1.00;;;20.40;99.90;;;;;;10370806;28;20224;-81
2022/06/20 15:04:47;;;;;;;4.25;0.88;;;20.50;99.90;;;;;;10369165;28;20256;-80
2022/06/20 15:10:08;;;;;;;1.45;1.35;;;21.00;99.90;;;;;;10369410;28;20682;-80
2022/06/20 15:15:13;;;;;;;5.68;1.52;;;21.40;99.90;;;;;;10368099;28;20208;-80
2022/06/20 15:20:25;;;;;;;1.25;1.05;;;21.30;99.90;;;;;;10364291;28;20294;-80
2022/06/20 15:25:49;;;;;;;1.40;1.08;;;21.60;99.90;;;;;;10369296;28;20314;-80
2022/06/20 15:30:57;;;;;;;2.13;1.33;;;21.50;99.90;;;;;;10368938;28;20263;-80
2022/06/20 15:36:03;;;;;;;1.77;1.20;;;20.70;99.90;;;;;;10369651;28;20310;-80
2022/06/20 15:42:25;;;;;;;1.15;0.90;;;21.70;99.90;;;;;;10341439;28;20275;-80
2022/06/20 15:47:09;;;;;;;2.25;0.90;;;21.70;99.90;;;;;;10346087;28;20322;-80
2022/06/20 15:52:38;;;;;;;1.50;1.40;;;21.80;99.90;;;;;;10361694;28;20647;-81
2022/06/20 15:58:08;;;;;;;1.20;1.00;;;22.10;99.90;;;;;;10360716;28;20617;-80
2022/06/20 16:03:22;;;;;;;1.40;1.00;;;22.10;99.90;;;;;;10357214;28;20240;-80
2022/06/20 16:08:39;;;;;;;2.85;0.95;;;22.10;99.90;;;;;;10346681;28;20252;-80
2022/06/20 16:13:46;;;;;;;1.23;0.95;;;22.20;99.90;;;;;;10366918;28;20278;-81
2022/06/20 16:19:07;;;;;;;1.85;1.00;;;22.20;99.90;;;;;;10333953;28;20280;-81
2022/06/20 16:24:38;;;;;;;2.55;1.08;;;22.20;99.90;;;;;;10367081;28;20252;-81
2022/06/20 16:29:53;;;;;;;1.63;1.08;;;22.20;99.90;;;;;;10338958;28;21113;-81
2022/06/20 16:34:57;;;;;;;1.13;0.90;;;22.20;99.90;;;;;;10355584;28;20290;-80
2022/06/20 16:40:10;;;;;;;1.45;1.00;;;22.20;99.90;;;;;;10344355;28;20236;-80
2022/06/20 16:45:28;;;;;;;1.23;0.90;;;21.80;99.90;;;;;;10301796;28;20264;-80
2022/06/20 16:50:51;;;;;;;1.00;0.80;;;22.10;99.90;;;;;;10372140;28;20246;-80
2022/06/20 16:56:01;;;;;;;1.30;0.98;;;22.10;99.90;;;;;;10403788;28;20235;-80
2022/06/20 17:01:18;;;;;;;1.38;1.15;;;22.10;99.90;;;;;;10401907;28;20287;-80
2022/06/20 17:06:32;;;;;;;0.90;0.90;;;21.80;99.90;;;;;;10391472;28;20289;-80
2022/06/20 17:11:38;;;;;;;1.20;0.90;;;21.70;99.90;;;;;;10389222;28;20371;-81
2022/06/20 17:16:52;;;;;;;1.10;1.00;;;22.10;99.90;;;;;;10413115;28;20239;-80
2022/06/20 17:22:48;;;;;;;4.40;1.40;;;21.70;99.90;;;;;;10373748;28;20266;-81
2022/06/20 17:28:27;;;;;;;1.27;0.95;;;21.90;99.90;;;;;;10398694;28;20900;-81
2022/06/20 17:33:42;;;;;;;1.00;0.90;;;22.10;99.90;;;;;;10410750;28;20223;-80
2022/06/20 17:38:47;;;;;;;1.05;0.95;;;22.00;99.90;;;;;;10394684;28;20228;-80
2022/06/20 17:44:22;;;;;;;1.02;0.95;;;22.10;99.90;;;;;;10436006;28;20254;-81
2022/06/20 17:49:40;;;;;;;1.08;1.00;;;22.00;99.90;;;;;;10411245;28;20251;-81
2022/06/20 17:55:27;;;;;;;1.63;1.33;;;22.00;99.90;;;;;;10408220;28;20231;-82
2022/06/20 18:00:40;;;;;;;2.85;1.40;;;22.10;99.90;;;;;;10245450;28;20781;-80
2022/06/20 18:05:47;;;;;;;2.33;1.48;;;22.10;99.90;;;;;;10246345;28;20285;-81
2022/06/20 18:10:52;;;;;;;1.15;1.05;;;22.10;99.90;;;;;;10230685;28;20262;-81
2022/06/20 18:16:05;;;;;;;1.45;1.35;;;22.10;99.90;;;;;;10243549;28;20374;-81
2022/06/20 18:21:15;;;;;;;1.73;1.55;;;22.00;99.90;;;;;;10237719;29;20281;-81
2022/06/20 18:26:25;;;;;;;1.70;1.60;;;22.00;99.90;;;;;;10229797;29;20262;-81
2022/06/20 18:31:38;;;;;;;1.33;1.20;;;22.00;99.90;;;;;;10245615;28;20234;-81
2022/06/20 18:36:42;;;;;;;1.38;1.17;;;21.90;99.90;;;;;;10388721;28;20297;-81
2022/06/20 18:41:59;;;;;;;1.27;1.15;;;21.80;99.90;;;;;;10411263;28;20258;-81
2022/06/20 18:47:02;;;;;;;1.85;1.30;;;21.80;99.90;;;;;;10410602;28;20254;-81
2022/06/20 18:52:44;;;;;;;1.20;1.08;;;21.70;99.90;;;;;;10390429;28;20228;-81
2022/06/20 18:58:02;;;;;;;2.97;1.40;;;21.80;99.90;;;;;;10364217;28;20304;-81
2022/06/20 19:03:36;;;;;;;2.10;1.20;;;21.60;99.90;;;;;;10377247;28;20207;-81
2022/06/20 19:09:19;;;;;;;2.33;1.75;;;21.70;99.90;;;;;;10372304;28;20244;-80
2022/06/20 19:14:21;;;;;;;2.00;1.63;;;21.80;99.90;;;;;;10409513;28;20224;-79
2022/06/20 19:19:44;;;;;;;1.55;1.42;;;21.70;99.90;;;;;;10410465;28;20651;-80
2022/06/20 19:24:53;;;;;;;1.42;1.33;;;21.70;99.90;;;;;;10409708;28;20646;-81
2022/06/20 19:30:02;;;;;;;1.65;1.55;;;21.70;99.90;;;;;;10409669;28;20275;-80
2022/06/20 19:35:10;;;;;;;1.85;1.50;;;21.60;99.90;;;;;;10408651;28;20243;-81
2022/06/20 19:40:30;;;;;;;2.40;1.30;;;21.60;99.90;;;;;;10407701;28;20661;-80
2022/06/20 19:45:51;;;;;;;2.00;1.58;;;21.60;99.90;;;;;;10390702;28;20270;-81
2022/06/20 19:50:54;;;;;;;1.40;1.27;;;21.50;99.90;;;;;;10407813;28;20227;-80
2022/06/20 19:56:02;;;;;;;1.40;1.30;;;21.50;99.90;;;;;;10409373;28;20281;-82
2022/06/20 20:01:05;;;;;;;3.10;2.80;;;21.50;99.90;;;;;;10382345;28;20225;-80
2022/06/20 20:06:10;;;;;;;2.15;2.00;;;21.50;99.90;;;;;;10404127;28;20648;-80
2022/06/20 20:11:25;;;;;;;1.90;1.60;;;21.50;99.90;;;;;;10354191;28;20232;-81
2022/06/20 20:16:46;;;;;;;2.10;1.70;;;21.60;99.90;;;;;;10364927;28;20235;-81
2022/06/20 20:21:55;;;;;;;2.25;1.80;;;21.50;99.90;;;;;;10399177;28;20269;-83
2022/06/20 20:26:57;;;;;;;2.15;1.95;;;21.50;99.90;;;;;;10355840;28;20309;-86
2022/06/20 20:32:38;;;;;;;2.95;1.95;;;21.50;99.90;;;;;;10428999;28;20293;-80
2022/06/20 20:38:13;;;;;;;2.10;2.00;;;21.50;99.90;;;;;;10285074;28;20311;-79
2022/06/20 20:43:30;;;;;;;2.63;1.75;;;21.50;99.90;;;;;;10275055;28;20261;-79
2022/06/20 20:48:41;;;;;;;2.40;2.20;;;21.50;99.90;;;;;;10278398;28;20256;-80
2022/06/20 20:53:52;;;;;;;2.60;2.38;;;21.50;99.90;;;;;;10278801;28;20240;-80
2022/06/20 20:59:02;;;;;;;3.72;3.33;;;21.50;99.90;;;;;;10243311;28;20234;-80
2022/06/20 21:04:27;;;;;;;2.80;2.53;;;21.30;99.90;;;;;;10278869;28;20245;-80
2022/06/20 21:09:45;;;;;;;2.72;2.38;;;21.30;99.90;;;;;;10299576;28;20251;-81
2022/06/20 21:15:25;;;;;;;3.47;2.88;;;21.40;99.90;;;;;;10371130;28;20231;-80
2022/06/20 21:20:31;;;;;;;3.80;2.45;;;21.30;99.90;;;;;;10282320;28;20351;-80
2022/06/20 21:25:34;;;;;;;2.60;2.40;;;21.40;99.90;;;;;;10255273;28;20249;-79
2022/06/20 21:30:39;;;;;;;3.30;3.00;;;21.40;99.90;;;;;;10243944;28;20272;-80
2022/06/20 21:35:49;;;;;;;4.03;2.60;;;21.50;99.90;;;;;;10279571;28;20237;-80
2022/06/20 21:41:09;;;;;;;3.00;2.80;;;21.20;99.90;;;;;;10236433;28;20308;-80
2022/06/20 21:46:16;;;;;;;5.25;2.58;;;21.30;99.90;;;;;;10278488;28;20288;-80
2022/06/20 21:51:21;;;;;;;3.20;2.85;;;21.30;99.90;;;;;;10266610;28;20289;-84
2022/06/20 21:56:30;;;;;;;3.30;3.00;;;21.40;99.90;;;;;;10382910;28;20725;-80
2022/06/20 22:07:03;;;;;;;2.08;1.92;;;21.50;99.90;;;;;;10398949;28;20251;-80
2022/06/20 22:12:24;;;;;;;2.45;2.25;;;21.40;99.90;;;;;;10404145;28;20626;-80
2022/06/20 22:17:59;;;;;;;2.15;1.95;;;21.40;99.90;;;;;;10384379;28;20253;-80
2022/06/20 22:23:03;;;;;;;2.70;2.50;;;21.40;99.90;;;;;;10388466;28;20239;-80
2022/06/20 22:28:15;;;;;;;2.40;2.20;;;21.30;99.90;;;;;;10411733;28;20297;-80
2022/06/20 22:33:22;;;;;;;2.55;2.35;;;21.40;99.90;;;;;;10392878;28;20709;-80
2022/06/20 22:38:35;;;;;;;2.72;2.47;;;21.40;99.90;;;;;;10374230;28;21003;-80
2022/06/20 22:43:43;;;;;;;2.38;2.17;;;21.30;99.90;;;;;;10411320;28;20313;-80
2022/06/20 22:48:52;;;;;;;2.08;1.98;;;21.30;99.90;;;;;;10392943;28;20719;-82
2022/06/20 22:54:04;;;;;;;2.55;2.35;;;21.40;99.90;;;;;;10411046;28;20203;-80
2022/06/20 22:59:20;;;;;;;2.30;2.10;;;21.40;99.90;;;;;;10392513;28;20278;-80
2022/06/20 23:04:42;;;;;;;2.60;2.30;;;21.40;99.90;;;;;;10410359;28;20577;-79
2022/06/20 23:09:45;;;;;;;2.33;2.13;;;21.30;99.90;;;;;;10407567;28;20255;-79
2022/06/20 23:14:51;;;;;;;2.55;2.00;;;21.30;99.90;;;;;;10392948;28;20242;-80
2022/06/20 23:19:54;;;;;;;2.50;2.30;;;21.30;99.90;;;;;;10366636;28;20243;-80
2022/06/20 23:24:59;;;;;;;2.70;2.35;;;21.30;99.90;;;;;;10351702;28;20585;-79
2022/06/20 23:30:02;;;;;;;2.13;1.92;;;21.30;99.90;;;;;;10351236;28;20391;-80
2022/06/20 23:35:18;;;;;;;2.65;2.45;;;21.30;99.90;;;;;;10381801;28;20234;-80
2022/06/20 23:40:27;;;;;;;2.33;2.13;;;21.20;99.90;;;;;;10410504;28;20222;-80
2022/06/20 23:45:30;;;;;;;2.30;2.10;;;21.30;99.90;;;;;;10387698;28;20289;-80
2022/06/20 23:50:33;;;;;;;2.47;2.28;;;21.30;99.90;;;;;;10409350;28;20277;-80
2022/06/20 23:55:36;;;;;;;2.47;2.20;;;21.30;99.90;;;;;;10379883;28;20232;-80
